createdAt,value
2023-03-30T00:01:00.545Z,5
2023-03-30T00:02:07.346Z,4
2023-03-30T00:03:14.380Z,4
2023-03-30T00:04:21.073Z,4
2023-03-30T00:05:27.928Z,4
2023-03-30T00:06:34.876Z,4
2023-03-30T00:07:41.748Z,4
2023-03-30T00:08:48.537Z,4
2023-03-30T00:10:00.409Z,4
2023-03-30T00:11:07.674Z,4
2023-03-30T00:12:14.288Z,5
2023-03-30T00:13:21.148Z,4
2023-03-30T00:14:28.210Z,4
2023-03-30T00:15:34.950Z,4
2023-03-30T00:16:41.847Z,4
2023-03-30T00:17:48.706Z,5
2023-03-30T00:18:55.514Z,4
2023-03-30T00:20:02.442Z,4
2023-03-30T00:21:09.620Z,4
2023-03-30T00:22:16.519Z,4
2023-03-30T00:23:23.344Z,4
2023-03-30T00:24:30.207Z,4
2023-03-30T00:25:37.117Z,4
2023-03-30T00:26:44.059Z,4
2023-03-30T00:27:50.856Z,4
2023-03-30T00:28:57.697Z,4
2023-03-30T00:30:04.590Z,4
2023-03-30T00:31:11.522Z,4
2023-03-30T00:32:18.411Z,4
2023-03-30T00:33:33.857Z,5
2023-03-30T00:34:32.155Z,4
2023-03-30T00:35:39.052Z,5
2023-03-30T00:36:45.863Z,4
2023-03-30T00:37:52.918Z,5
2023-03-30T00:38:59.695Z,5
2023-03-30T00:40:09.640Z,4
2023-03-30T00:41:16.720Z,4
2023-03-30T00:42:23.589Z,5
2023-03-30T00:43:30.493Z,5
2023-03-30T00:44:37.303Z,5
2023-03-30T00:45:54.297Z,4
2023-03-30T00:47:01.092Z,4
2023-03-30T00:48:07.998Z,4
2023-03-30T00:49:17.744Z,4
2023-03-30T00:50:24.831Z,4
2023-03-30T00:51:34.789Z,4
2023-03-30T00:52:41.651Z,4
2023-03-30T00:53:48.499Z,4
2023-03-30T00:54:55.308Z,4
2023-03-30T00:56:02.137Z,4
2023-03-30T00:57:09.122Z,4
2023-03-30T00:58:16.014Z,3
2023-03-30T00:59:22.812Z,4
2023-03-30T01:00:29.784Z,4
2023-03-30T01:01:36.664Z,4
2023-03-30T01:02:43.540Z,4
2023-03-30T01:03:50.518Z,4
2023-03-30T01:05:00.084Z,4
2023-03-30T01:06:07.025Z,4
2023-03-30T01:07:13.869Z,4
2023-03-30T01:08:20.697Z,4
2023-03-30T01:09:27.563Z,4
2023-03-30T01:10:34.478Z,4
2023-03-30T01:11:41.349Z,4
2023-03-30T01:12:48.142Z,4
2023-03-30T01:13:54.981Z,4
2023-03-30T01:15:04.630Z,4
2023-03-30T01:16:11.618Z,4
2023-03-30T01:17:28.534Z,4
2023-03-30T01:18:35.271Z,4
2023-03-30T01:19:50.099Z,4
2023-03-30T01:21:02.072Z,4
2023-03-30T01:22:18.999Z,4
2023-03-30T01:23:30.939Z,4
2023-03-30T01:24:47.866Z,4
2023-03-30T01:26:04.873Z,4
2023-03-30T01:27:21.902Z,4
2023-03-30T01:28:33.783Z,4
2023-03-30T01:29:48.571Z,4
2023-03-30T01:30:55.504Z,3
2023-03-30T01:32:12.388Z,4
2023-03-30T01:33:27.115Z,4
2023-03-30T01:34:43.970Z,3
2023-03-30T01:36:00.926Z,3
2023-03-30T01:37:17.830Z,3
2023-03-30T01:38:34.849Z,4
2023-03-30T01:39:51.805Z,3
2023-03-30T01:41:06.655Z,4
2023-03-30T01:42:21.561Z,4
2023-03-30T01:43:33.443Z,4
2023-03-30T01:44:47.951Z,4
2023-03-30T01:45:57.865Z,4
2023-03-30T01:47:04.730Z,4
2023-03-30T01:48:21.548Z,4
2023-03-30T01:49:34.464Z,3
2023-03-30T01:50:46.152Z,3
2023-03-30T01:51:53.018Z,3
2023-03-30T01:53:08.012Z,4
2023-03-30T01:54:17.714Z,3
2023-03-30T01:55:27.364Z,3
2023-03-30T01:56:42.145Z,3
2023-03-30T01:57:51.801Z,3
2023-03-30T01:59:03.633Z,3
2023-03-30T02:00:15.530Z,3
2023-03-30T02:01:22.563Z,3
2023-03-30T02:02:29.359Z,3
2023-03-30T02:03:36.180Z,4
2023-03-30T02:04:43.016Z,3
2023-03-30T02:05:49.834Z,3
2023-03-30T02:06:56.692Z,3
2023-03-30T02:08:06.225Z,3
2023-03-30T02:09:13.026Z,3
2023-03-30T02:10:19.831Z,3
2023-03-30T02:11:26.615Z,3
2023-03-30T02:12:33.495Z,3
2023-03-30T02:13:40.270Z,3
2023-03-30T02:14:47.086Z,3
2023-03-30T02:15:54.014Z,3
2023-03-30T02:17:00.921Z,3
2023-03-30T02:18:12.849Z,3
2023-03-30T02:19:19.797Z,3
2023-03-30T02:20:26.605Z,3
2023-03-30T02:21:33.445Z,3
2023-03-30T02:22:40.262Z,3
2023-03-30T02:23:47.059Z,3
2023-03-30T02:24:53.959Z,3
2023-03-30T02:26:00.737Z,3
2023-03-30T02:27:07.541Z,3
2023-03-30T02:28:14.342Z,3
2023-03-30T02:29:21.320Z,3
2023-03-30T02:30:28.163Z,3
2023-03-30T02:31:34.977Z,3
2023-03-30T02:32:41.902Z,4
2023-03-30T02:33:56.861Z,3
2023-03-30T02:35:11.671Z,3
2023-03-30T02:36:26.529Z,3
2023-03-30T02:37:43.539Z,3
2023-03-30T02:38:58.018Z,3
2023-03-30T02:40:12.686Z,3
2023-03-30T02:41:27.378Z,3
2023-03-30T02:42:34.363Z,3
2023-03-30T02:43:44.012Z,3
2023-03-30T02:44:53.589Z,3
2023-03-30T02:46:03.697Z,3
2023-03-30T02:47:15.535Z,3
2023-03-30T02:48:25.146Z,3
2023-03-30T02:49:36.975Z,3
2023-03-30T02:50:43.825Z,3
2023-03-30T02:51:58.796Z,3
2023-03-30T02:53:13.419Z,3
2023-03-30T02:54:25.264Z,3
2023-03-30T02:55:32.249Z,3
2023-03-30T02:56:44.161Z,3
2023-03-30T02:57:50.897Z,2
2023-03-30T02:59:02.791Z,3
2023-03-30T03:00:14.617Z,3
2023-03-30T03:01:26.546Z,3
2023-03-30T03:02:36.161Z,3
2023-03-30T03:03:45.561Z,3
2023-03-30T03:04:52.365Z,3
2023-03-30T03:05:59.215Z,3
2023-03-30T03:07:06.049Z,3
2023-03-30T03:08:12.796Z,3
2023-03-30T03:09:19.594Z,3
2023-03-30T03:10:29.488Z,3
2023-03-30T03:11:36.236Z,3
2023-03-30T03:12:43.015Z,3
2023-03-30T03:13:49.972Z,3
2023-03-30T03:14:56.764Z,3
2023-03-30T03:16:04.261Z,3
2023-03-30T03:17:10.430Z,3
2023-03-30T03:18:17.176Z,3
2023-03-30T03:19:24.009Z,3
2023-03-30T03:20:30.815Z,3
2023-03-30T03:21:37.602Z,4
2023-03-30T03:22:44.439Z,4
2023-03-30T03:23:51.140Z,3
2023-03-30T03:24:58.001Z,4
2023-03-30T03:26:04.846Z,4
2023-03-30T03:27:11.816Z,4
2023-03-30T03:28:18.540Z,4
2023-03-30T03:29:25.309Z,4
2023-03-30T03:30:32.192Z,4
2023-03-30T03:31:38.979Z,4
2023-03-30T03:32:45.943Z,3
2023-03-30T03:33:52.644Z,4
2023-03-30T03:34:59.467Z,3
2023-03-30T03:36:06.455Z,3
2023-03-30T03:37:13.206Z,3
2023-03-30T03:38:20.014Z,3
2023-03-30T03:39:26.783Z,3
2023-03-30T03:40:33.641Z,3
2023-03-30T03:41:40.542Z,4
2023-03-30T03:42:47.442Z,4
2023-03-30T03:43:54.189Z,5
2023-03-30T03:45:00.924Z,4
2023-03-30T03:46:08.010Z,5
2023-03-30T03:47:16.508Z,5
2023-03-30T03:48:21.614Z,4
2023-03-30T03:49:28.409Z,4
2023-03-30T03:50:35.186Z,4
2023-03-30T03:51:41.957Z,4
2023-03-30T03:52:48.883Z,4
2023-03-30T03:53:55.913Z,5
2023-03-30T03:55:02.669Z,4
2023-03-30T03:56:09.665Z,4
2023-03-30T03:57:16.444Z,4
2023-03-30T03:58:23.356Z,4
2023-03-30T03:59:30.185Z,4
2023-03-30T04:00:37.063Z,4
2023-03-30T04:01:43.761Z,4
2023-03-30T04:02:50.577Z,4
2023-03-30T04:03:57.339Z,4
2023-03-30T04:05:04.279Z,5
2023-03-30T04:06:10.985Z,5
2023-03-30T04:07:17.741Z,5
2023-03-30T04:08:24.534Z,5
2023-03-30T04:09:31.422Z,5
2023-03-30T04:10:38.319Z,4
2023-03-30T04:11:45.077Z,5
2023-03-30T04:12:51.858Z,4
2023-03-30T04:13:58.591Z,4
2023-03-30T04:15:05.379Z,4
2023-03-30T04:16:12.440Z,4
2023-03-30T04:17:19.151Z,4
2023-03-30T04:18:25.875Z,4
2023-03-30T04:19:32.625Z,4
2023-03-30T04:20:39.371Z,4
2023-03-30T04:21:46.297Z,4
2023-03-30T04:22:53.034Z,4
2023-03-30T04:23:59.801Z,4
2023-03-30T04:25:06.761Z,4
2023-03-30T04:26:13.539Z,4
2023-03-30T04:27:20.418Z,4
2023-03-30T04:28:27.188Z,4
2023-03-30T04:29:33.984Z,4
2023-03-30T04:30:40.808Z,4
2023-03-30T04:31:47.639Z,5
2023-03-30T04:32:54.518Z,5
2023-03-30T04:34:06.309Z,4
2023-03-30T04:35:13.145Z,5
2023-03-30T04:36:19.918Z,7
2023-03-30T04:37:26.660Z,8
2023-03-30T04:38:33.472Z,8
2023-03-30T04:39:40.226Z,9
2023-03-30T04:40:47.110Z,7
2023-03-30T04:41:53.929Z,6
2023-03-30T04:43:00.670Z,6
2023-03-30T04:44:07.493Z,6
2023-03-30T04:45:14.256Z,7
2023-03-30T04:46:23.707Z,7
2023-03-30T04:47:30.916Z,7
2023-03-30T04:48:38.038Z,6
2023-03-30T04:49:44.922Z,5
2023-03-30T04:50:51.809Z,5
2023-03-30T04:51:58.474Z,5
2023-03-30T04:53:05.381Z,5
2023-03-30T04:54:12.130Z,5
2023-03-30T04:55:18.960Z,5
2023-03-30T04:56:25.799Z,5
2023-03-30T04:57:32.513Z,5
2023-03-30T04:58:39.406Z,5
2023-03-30T04:59:47.068Z,5
2023-03-30T05:00:53.912Z,5
2023-03-30T05:02:00.687Z,5
2023-03-30T05:03:07.510Z,5
2023-03-30T05:04:14.356Z,5
2023-03-30T05:05:21.097Z,5
2023-03-30T05:06:28.514Z,6
2023-03-30T05:07:35.234Z,6
2023-03-30T05:08:42.120Z,5
2023-03-30T05:09:48.856Z,6
2023-03-30T05:10:55.755Z,7
2023-03-30T05:12:05.386Z,6
2023-03-30T05:13:12.182Z,7
2023-03-30T05:14:18.935Z,7
2023-03-30T05:15:25.678Z,6
2023-03-30T05:16:32.495Z,7
2023-03-30T05:17:39.312Z,7
2023-03-30T05:18:46.111Z,7
2023-03-30T05:19:53.459Z,7
2023-03-30T05:21:00.366Z,7
2023-03-30T05:22:07.206Z,7
2023-03-30T05:23:14.096Z,6
2023-03-30T05:24:20.945Z,6
2023-03-30T05:25:27.823Z,7
2023-03-30T05:26:34.609Z,6
2023-03-30T05:27:41.379Z,6
2023-03-30T05:28:48.233Z,6
2023-03-30T05:29:55.243Z,6
2023-03-30T05:31:02.302Z,6
2023-03-30T05:32:09.035Z,6
2023-03-30T05:33:15.763Z,5
2023-03-30T05:34:22.545Z,6
2023-03-30T05:35:29.430Z,5
2023-03-30T05:36:36.214Z,6
2023-03-30T05:37:43.070Z,6
2023-03-30T05:38:49.805Z,5
2023-03-30T05:39:56.591Z,6
2023-03-30T05:41:03.622Z,5
2023-03-30T05:42:10.212Z,5
2023-03-30T05:43:17.087Z,6
2023-03-30T05:44:23.784Z,6
2023-03-30T05:45:30.592Z,6
2023-03-30T05:46:37.525Z,6
2023-03-30T05:47:44.330Z,6
2023-03-30T05:48:51.080Z,7
2023-03-30T05:49:57.798Z,7
2023-03-30T05:51:04.699Z,7
2023-03-30T05:52:11.404Z,8
2023-03-30T05:53:18.143Z,8
2023-03-30T05:54:24.889Z,7
2023-03-30T05:55:31.702Z,8
2023-03-30T05:56:39.356Z,8
2023-03-30T05:57:47.604Z,8
2023-03-30T05:58:54.496Z,8
2023-03-30T06:00:01.211Z,8
2023-03-30T06:01:08.357Z,8
2023-03-30T06:02:15.194Z,9
2023-03-30T06:03:22.033Z,8
2023-03-30T06:04:28.821Z,8
2023-03-30T06:05:35.539Z,9
2023-03-30T06:06:42.390Z,8
2023-03-30T06:07:49.114Z,8
2023-03-30T06:08:55.886Z,8
2023-03-30T06:10:02.904Z,8
2023-03-30T06:11:09.867Z,7
2023-03-30T06:12:16.658Z,7
2023-03-30T06:13:23.434Z,7
2023-03-30T06:14:30.204Z,7
2023-03-30T06:15:37.015Z,7
2023-03-30T06:16:43.854Z,7
2023-03-30T06:17:50.751Z,7
2023-03-30T06:18:57.535Z,6
2023-03-30T06:20:04.338Z,7
2023-03-30T06:21:11.668Z,6
2023-03-30T06:22:18.499Z,6
2023-03-30T06:23:25.295Z,7
2023-03-30T06:24:32.192Z,7
2023-03-30T06:25:38.911Z,6
2023-03-30T06:26:45.787Z,6
2023-03-30T06:27:52.561Z,6
2023-03-30T06:28:59.354Z,6
2023-03-30T06:30:06.189Z,6
2023-03-30T06:31:13.289Z,7
2023-03-30T06:32:20.054Z,7
2023-03-30T06:33:26.924Z,6
2023-03-30T06:34:33.677Z,6
2023-03-30T06:35:40.459Z,6
2023-03-30T06:36:49.741Z,6
2023-03-30T06:37:56.507Z,7
2023-03-30T06:39:05.298Z,6
2023-03-30T06:40:10.515Z,5
2023-03-30T06:41:17.509Z,5
2023-03-30T06:42:24.637Z,6
2023-03-30T06:43:31.448Z,5
2023-03-30T06:44:38.598Z,6
2023-03-30T06:46:43.687Z,6
2023-03-30T06:48:48.671Z,6
2023-03-30T06:50:44.975Z,6
2023-03-30T06:51:51.786Z,6
2023-03-30T06:52:58.658Z,5
2023-03-30T06:54:05.522Z,6
2023-03-30T06:55:12.297Z,7
2023-03-30T06:56:19.096Z,6
2023-03-30T06:57:26.084Z,5
2023-03-30T06:58:32.712Z,6
2023-03-30T06:59:39.601Z,6
2023-03-30T07:00:46.425Z,5
2023-03-30T07:01:53.473Z,7
2023-03-30T07:03:00.160Z,6
2023-03-30T07:04:06.965Z,6
2023-03-30T07:05:13.701Z,6
2023-03-30T07:06:21.260Z,6
2023-03-30T07:07:27.262Z,6
2023-03-30T07:08:34.001Z,6
2023-03-30T07:09:40.762Z,5
2023-03-30T07:10:47.562Z,5
2023-03-30T07:11:56.252Z,7
2023-03-30T07:13:01.289Z,5
2023-03-30T07:14:08.155Z,5
2023-03-30T07:15:14.942Z,5
2023-03-30T07:16:21.890Z,5
2023-03-30T07:17:28.817Z,5
2023-03-30T07:18:35.422Z,5
2023-03-30T07:19:42.288Z,5
2023-03-30T07:20:49.044Z,5
2023-03-30T07:21:56.978Z,5
2023-03-30T07:23:04.334Z,5
2023-03-30T07:24:11.134Z,6
2023-03-30T07:25:17.977Z,5
2023-03-30T07:26:24.819Z,8
2023-03-30T07:27:31.614Z,6
2023-03-30T07:28:38.496Z,5
2023-03-30T07:29:45.317Z,6
2023-03-30T07:30:52.128Z,5
2023-03-30T07:31:58.981Z,6
2023-03-30T07:33:05.954Z,6
2023-03-30T07:34:12.666Z,5
2023-03-30T07:35:19.493Z,6
2023-03-30T07:36:26.444Z,6
2023-03-30T07:37:33.234Z,7
2023-03-30T07:38:40.108Z,7
2023-03-30T07:39:46.883Z,5
2023-03-30T07:40:53.714Z,6
2023-03-30T07:42:00.618Z,6
2023-03-30T07:43:07.653Z,6
2023-03-30T07:44:14.358Z,7
2023-03-30T07:45:21.137Z,7
2023-03-30T07:46:27.970Z,7
2023-03-30T07:47:34.720Z,7
2023-03-30T07:48:41.505Z,8
2023-03-30T07:49:48.309Z,7
2023-03-30T07:50:55.394Z,7
2023-03-30T07:52:05.181Z,6
2023-03-30T07:53:12.025Z,6
2023-03-30T07:54:18.850Z,5
2023-03-30T07:55:25.655Z,5
2023-03-30T07:56:32.617Z,4
2023-03-30T07:57:39.419Z,4
2023-03-30T07:58:46.192Z,4
2023-03-30T07:59:53.024Z,4
2023-03-30T08:00:59.848Z,4
2023-03-30T08:02:06.596Z,4
2023-03-30T08:03:13.508Z,4
2023-03-30T08:04:20.260Z,3
2023-03-30T08:05:26.933Z,4
2023-03-30T08:06:33.685Z,4
2023-03-30T08:07:40.573Z,4
2023-03-30T08:08:47.322Z,4
2023-03-30T08:09:54.183Z,4
2023-03-30T08:11:01.137Z,3
2023-03-30T08:12:07.880Z,4
2023-03-30T08:13:14.795Z,4
2023-03-30T08:14:21.599Z,4
2023-03-30T08:15:28.404Z,4
2023-03-30T08:16:35.298Z,4
2023-03-30T08:17:42.024Z,3
2023-03-30T08:18:48.818Z,3
2023-03-30T08:19:55.637Z,3
2023-03-30T08:21:02.669Z,4
2023-03-30T08:22:09.264Z,3
2023-03-30T08:23:19.256Z,3
2023-03-30T08:24:26.196Z,3
2023-03-30T08:25:32.999Z,3
2023-03-30T08:26:39.818Z,3
2023-03-30T08:27:46.590Z,3
2023-03-30T08:28:53.389Z,3
2023-03-30T08:30:00.192Z,4
2023-03-30T08:31:07.397Z,3
2023-03-30T08:32:14.062Z,3
2023-03-30T08:33:20.901Z,3
2023-03-30T08:34:27.643Z,4
2023-03-30T08:35:34.505Z,3
2023-03-30T08:36:41.293Z,3
2023-03-30T08:37:48.046Z,3
2023-03-30T08:38:54.826Z,3
2023-03-30T08:40:01.717Z,3
2023-03-30T08:41:11.373Z,3
2023-03-30T08:42:28.278Z,3
2023-03-30T08:43:40.202Z,3
2023-03-30T08:44:52.050Z,3
2023-03-30T08:45:58.892Z,3
2023-03-30T08:47:05.612Z,3
2023-03-30T08:48:12.390Z,3
2023-03-30T08:49:19.193Z,3
2023-03-30T08:50:26.188Z,3
2023-03-30T08:51:38.124Z,3
2023-03-30T08:52:44.929Z,3
2023-03-30T08:53:51.694Z,3
2023-03-30T08:54:58.430Z,3
2023-03-30T08:56:05.216Z,3
2023-03-30T08:57:12.134Z,3
2023-03-30T08:58:18.835Z,3
2023-03-30T08:59:33.393Z,4
2023-03-30T09:00:50.556Z,3
2023-03-30T09:01:57.278Z,3
2023-03-30T09:03:14.248Z,4
2023-03-30T09:04:31.173Z,4
2023-03-30T09:05:41.026Z,4
2023-03-30T09:06:53.032Z,4
2023-03-30T09:08:04.872Z,5
2023-03-30T09:09:16.729Z,5
2023-03-30T09:10:26.591Z,5
2023-03-30T09:11:33.565Z,4
2023-03-30T09:12:40.390Z,5
2023-03-30T09:13:53.940Z,4
2023-03-30T09:15:00.719Z,3
2023-03-30T09:16:15.211Z,4
2023-03-30T09:17:32.215Z,9
2023-03-30T09:18:42.065Z,5
2023-03-30T09:19:48.836Z,7
2023-03-30T09:21:00.809Z,9
2023-03-30T09:22:07.965Z,8
2023-03-30T09:23:14.641Z,6
2023-03-30T09:24:21.440Z,5
2023-03-30T09:25:28.177Z,6
2023-03-30T09:26:34.989Z,4
2023-03-30T09:27:44.609Z,3
2023-03-30T09:28:59.232Z,3
2023-03-30T09:30:13.623Z,3
2023-03-30T09:31:21.899Z,3
2023-03-30T09:32:32.338Z,3
2023-03-30T09:33:44.086Z,3
2023-03-30T09:34:58.757Z,3
2023-03-30T09:36:08.345Z,3
2023-03-30T09:37:22.941Z,3
2023-03-30T09:38:29.647Z,3
2023-03-30T09:39:36.498Z,3
2023-03-30T09:40:43.424Z,3
2023-03-30T09:41:53.043Z,3
2023-03-30T09:43:07.383Z,3
2023-03-30T09:44:22.076Z,3
2023-03-30T09:45:36.662Z,4
2023-03-30T09:46:43.514Z,3
2023-03-30T09:47:50.284Z,3
2023-03-30T09:48:57.134Z,3
2023-03-30T09:50:14.176Z,3
2023-03-30T09:51:26.213Z,3
2023-03-30T09:52:32.836Z,3
2023-03-30T09:53:39.697Z,4
2023-03-30T09:54:46.813Z,3
2023-03-30T09:55:53.649Z,4
2023-03-30T09:57:03.459Z,5
2023-03-30T09:58:10.224Z,4
2023-03-30T09:59:22.036Z,4
2023-03-30T10:00:31.342Z,3
2023-03-30T10:01:38.630Z,3
2023-03-30T10:02:45.346Z,3
2023-03-30T10:03:57.108Z,4
2023-03-30T10:05:11.530Z,4
2023-03-30T10:06:18.327Z,4
2023-03-30T10:07:25.108Z,4
2023-03-30T10:08:36.976Z,4
2023-03-30T10:09:46.401Z,4
2023-03-30T10:10:53.234Z,3
2023-03-30T10:12:00.129Z,3
2023-03-30T10:13:06.944Z,3
2023-03-30T10:14:16.467Z,3
2023-03-30T10:15:28.218Z,4
2023-03-30T10:16:35.009Z,3
2023-03-30T10:17:41.787Z,4
2023-03-30T10:18:48.482Z,3
2023-03-30T10:20:07.444Z,3
2023-03-30T10:21:14.970Z,3
2023-03-30T10:22:21.781Z,3
2023-03-30T10:23:28.613Z,3
2023-03-30T10:24:35.429Z,3
2023-03-30T10:25:42.361Z,3
2023-03-30T10:26:49.258Z,3
2023-03-30T10:27:56.107Z,3
2023-03-30T10:29:02.901Z,4
2023-03-30T10:30:09.721Z,3
2023-03-30T10:31:16.662Z,4
2023-03-30T10:32:23.542Z,3
2023-03-30T10:33:30.505Z,3
2023-03-30T10:34:42.335Z,3
2023-03-30T10:35:49.218Z,4
2023-03-30T10:36:58.550Z,3
2023-03-30T10:38:05.359Z,4
2023-03-30T10:39:12.171Z,4
2023-03-30T10:40:26.962Z,5
2023-03-30T10:41:39.429Z,5
2023-03-30T10:42:46.170Z,5
2023-03-30T10:43:52.995Z,5
2023-03-30T10:44:59.740Z,4
2023-03-30T10:46:18.612Z,5
2023-03-30T10:47:21.297Z,4
2023-03-30T10:48:33.053Z,4
2023-03-30T10:49:44.876Z,3
2023-03-30T10:51:01.753Z,4
2023-03-30T10:52:13.613Z,4
2023-03-30T10:53:26.298Z,4
2023-03-30T10:54:43.210Z,2
2023-03-30T10:55:53.084Z,2
2023-03-30T10:57:04.854Z,3
2023-03-30T10:58:14.335Z,3
2023-03-30T10:59:26.189Z,3
2023-03-30T11:00:43.190Z,3
2023-03-30T11:01:53.105Z,2
2023-03-30T11:03:10.057Z,4
2023-03-30T11:04:24.734Z,3
2023-03-30T11:05:36.554Z,3
2023-03-30T11:06:43.282Z,4
2023-03-30T11:07:50.008Z,3
2023-03-30T11:09:02.035Z,3
2023-03-30T11:10:08.806Z,3
2023-03-30T11:11:18.358Z,3
2023-03-30T11:12:25.149Z,3
2023-03-30T11:13:31.945Z,3
2023-03-30T11:14:38.877Z,3
2023-03-30T11:15:55.781Z,3
2023-03-30T11:17:05.120Z,3
2023-03-30T11:18:14.880Z,3
2023-03-30T11:19:26.673Z,3
2023-03-30T11:20:41.400Z,3
2023-03-30T11:21:58.325Z,3
2023-03-30T11:23:15.280Z,3
2023-03-30T11:24:22.072Z,3
2023-03-30T11:25:28.930Z,3
2023-03-30T11:26:40.983Z,3
2023-03-30T11:27:57.941Z,4
2023-03-30T11:29:09.815Z,3
2023-03-30T11:30:26.665Z,4
2023-03-30T11:31:33.580Z,4
2023-03-30T11:32:48.086Z,3
2023-03-30T11:33:59.867Z,4
2023-03-30T11:35:14.621Z,4
2023-03-30T11:36:31.468Z,3
2023-03-30T11:37:43.307Z,3
2023-03-30T11:38:52.875Z,4
2023-03-30T11:40:04.736Z,3
2023-03-30T11:41:16.611Z,3
2023-03-30T11:42:23.472Z,3
2023-03-30T11:43:33.254Z,3
2023-03-30T11:44:40.011Z,3
2023-03-30T11:45:46.859Z,3
2023-03-30T11:46:58.624Z,4
2023-03-30T11:48:10.526Z,3
2023-03-30T11:49:27.274Z,3
2023-03-30T11:50:45.765Z,4
2023-03-30T11:51:56.476Z,3
2023-03-30T11:53:13.325Z,3
2023-03-30T11:54:30.244Z,4
2023-03-30T11:55:45.036Z,4
2023-03-30T11:56:51.857Z,4
2023-03-30T11:58:08.763Z,4
2023-03-30T11:59:20.685Z,4
2023-03-30T12:00:27.517Z,4
2023-03-30T12:01:44.455Z,4
2023-03-30T12:02:58.944Z,5
2023-03-30T12:04:13.624Z,5
2023-03-30T12:05:20.436Z,5
2023-03-30T12:06:30.070Z,5
2023-03-30T12:07:36.962Z,5
2023-03-30T12:08:51.853Z,5
2023-03-30T12:10:06.823Z,4
2023-03-30T12:11:11.726Z,4
2023-03-30T12:12:21.774Z,4
2023-03-30T12:13:35.698Z,4
2023-03-30T12:14:35.485Z,4
2023-03-30T12:15:47.491Z,4
2023-03-30T12:16:54.279Z,4
2023-03-30T12:18:01.088Z,4
2023-03-30T12:19:12.883Z,4
2023-03-30T12:20:19.635Z,4
2023-03-30T12:21:31.529Z,4
2023-03-30T12:22:46.374Z,4
2023-03-30T12:24:00.789Z,3
2023-03-30T12:25:07.625Z,3
2023-03-30T12:26:22.314Z,3
2023-03-30T12:27:32.096Z,3
2023-03-30T12:28:54.228Z,3
2023-03-30T12:30:58.458Z,3
2023-03-30T12:32:05.489Z,3
2023-03-30T12:33:12.218Z,3
2023-03-30T12:34:19.119Z,3
2023-03-30T12:35:25.962Z,3
2023-03-30T12:36:42.828Z,3
2023-03-30T12:37:49.697Z,3
2023-03-30T12:38:56.522Z,3
2023-03-30T12:40:05.876Z,3
2023-03-30T12:41:17.678Z,3
2023-03-30T12:42:24.460Z,4
2023-03-30T12:43:36.976Z,3
2023-03-30T12:44:53.968Z,3
2023-03-30T12:46:01.035Z,3
2023-03-30T12:47:09.614Z,3
2023-03-30T12:48:25.532Z,3
2023-03-30T12:49:37.386Z,3
2023-03-30T12:50:52.061Z,3
2023-03-30T12:52:04.229Z,3
2023-03-30T12:53:16.794Z,4
2023-03-30T12:54:34.482Z,3
2023-03-30T12:55:50.378Z,3
2023-03-30T12:57:07.649Z,4
2023-03-30T12:58:17.472Z,3
2023-03-30T12:59:30.840Z,4
2023-03-30T13:00:44.451Z,4
2023-03-30T13:01:51.261Z,4
2023-03-30T13:03:00.653Z,4
2023-03-30T13:04:12.502Z,3
2023-03-30T13:05:25.191Z,3
2023-03-30T13:06:31.955Z,4
2023-03-30T13:07:41.473Z,4
2023-03-30T13:08:48.192Z,4
2023-03-30T13:10:04.168Z,4
2023-03-30T13:11:19.711Z,4
2023-03-30T13:12:26.523Z,4
2023-03-30T13:13:33.275Z,4
2023-03-30T13:14:47.937Z,4
2023-03-30T13:16:00.461Z,4
2023-03-30T13:17:07.277Z,4
2023-03-30T13:18:16.991Z,4
2023-03-30T13:19:31.616Z,4
2023-03-30T13:20:38.417Z,4
2023-03-30T13:21:50.240Z,4
2023-03-30T13:23:07.178Z,4
2023-03-30T13:24:13.996Z,5
2023-03-30T13:25:30.945Z,5
2023-03-30T13:26:43.422Z,4
2023-03-30T13:27:50.208Z,5
2023-03-30T13:28:57.015Z,4
2023-03-30T13:30:06.673Z,5
2023-03-30T13:31:13.819Z,4
2023-03-30T13:32:25.562Z,5
2023-03-30T13:33:42.482Z,5
2023-03-30T13:34:58.868Z,5
2023-03-30T13:36:04.557Z,5
2023-03-30T13:37:16.289Z,5
2023-03-30T13:38:25.843Z,5
2023-03-30T13:39:42.968Z,5
2023-03-30T13:42:04.474Z,5
2023-03-30T13:43:14.517Z,5
2023-03-30T13:44:21.379Z,5
2023-03-30T13:45:36.097Z,5
2023-03-30T13:46:52.987Z,5
2023-03-30T13:48:04.701Z,5
2023-03-30T13:49:14.606Z,5
2023-03-30T13:50:31.524Z,4
2023-03-30T13:51:38.393Z,5
2023-03-30T13:52:47.871Z,4
2023-03-30T13:53:54.665Z,4
2023-03-30T13:55:06.679Z,4
2023-03-30T13:56:13.444Z,5
2023-03-30T13:57:20.500Z,5
2023-03-30T13:58:32.398Z,4
2023-03-30T13:59:39.315Z,5
2023-03-30T14:00:48.117Z,5
2023-03-30T14:02:03.173Z,5
2023-03-30T14:03:09.870Z,5
2023-03-30T14:04:21.741Z,5
2023-03-30T14:05:28.589Z,5
2023-03-30T14:06:35.343Z,5
2023-03-30T14:07:47.201Z,5
2023-03-30T14:08:53.934Z,5
2023-03-30T14:10:08.711Z,5
2023-03-30T14:11:18.366Z,5
2023-03-30T14:12:30.483Z,6
2023-03-30T14:13:37.248Z,6
2023-03-30T14:14:44.011Z,6
2023-03-30T14:15:50.832Z,5
2023-03-30T14:16:57.638Z,6
2023-03-30T14:18:04.555Z,5
2023-03-30T14:19:11.273Z,4
2023-03-30T14:20:23.124Z,5
2023-03-30T14:21:37.766Z,6
2023-03-30T14:22:47.401Z,5
2023-03-30T14:23:54.224Z,5
2023-03-30T14:25:01.106Z,5
2023-03-30T14:26:08.189Z,5
2023-03-30T14:27:14.953Z,6
2023-03-30T14:28:21.722Z,5
2023-03-30T14:29:31.528Z,6
2023-03-30T14:30:35.358Z,6
2023-03-30T14:31:42.261Z,7
2023-03-30T14:32:49.162Z,7
2023-03-30T14:34:06.018Z,7
2023-03-30T14:35:22.889Z,6
2023-03-30T14:36:29.655Z,7
2023-03-30T14:37:36.475Z,8
2023-03-30T14:38:43.201Z,8
2023-03-30T14:39:49.993Z,9
2023-03-30T14:40:56.787Z,8
2023-03-30T14:42:03.638Z,9
2023-03-30T14:43:13.096Z,8
2023-03-30T14:44:19.940Z,9
2023-03-30T14:45:26.699Z,8
2023-03-30T14:46:33.551Z,8
2023-03-30T14:47:43.172Z,9
2023-03-30T14:48:50.754Z,9
2023-03-30T14:49:56.753Z,8
2023-03-30T14:51:03.578Z,9
2023-03-30T14:52:23.171Z,9
2023-03-30T14:53:30.004Z,7
2023-03-30T14:54:36.856Z,8
2023-03-30T14:55:43.599Z,8
2023-03-30T14:56:50.418Z,8
2023-03-30T14:58:02.222Z,7
2023-03-30T14:59:08.990Z,8
2023-03-30T15:00:15.781Z,7
2023-03-30T15:01:25.552Z,7
2023-03-30T15:02:32.389Z,7
2023-03-30T15:03:39.211Z,8
2023-03-30T15:04:46.044Z,8
2023-03-30T15:05:52.891Z,8
2023-03-30T15:06:59.666Z,8
2023-03-30T15:08:06.541Z,8
2023-03-30T15:09:16.190Z,8
2023-03-30T15:10:22.983Z,8
2023-03-30T15:11:37.968Z,8
2023-03-30T15:12:44.750Z,8
2023-03-30T15:13:51.652Z,8
2023-03-30T15:14:58.410Z,8
2023-03-30T15:16:05.209Z,7
2023-03-30T15:17:12.139Z,7
2023-03-30T15:18:21.625Z,8
2023-03-30T15:19:28.558Z,8
2023-03-30T15:20:35.352Z,8
2023-03-30T15:21:42.317Z,8
2023-03-30T15:22:49.088Z,9
2023-03-30T15:23:55.875Z,9
2023-03-30T15:25:02.793Z,10
2023-03-30T15:26:09.666Z,10
2023-03-30T15:27:16.467Z,11
2023-03-30T15:28:23.187Z,10
2023-03-30T15:29:30.050Z,10
2023-03-30T15:30:36.975Z,9
2023-03-30T15:31:46.451Z,10
2023-03-30T15:33:00.934Z,12
2023-03-30T15:34:07.916Z,11
2023-03-30T15:35:17.667Z,11
2023-03-30T15:36:24.555Z,9
2023-03-30T15:37:36.435Z,9
2023-03-30T15:38:43.411Z,9
2023-03-30T15:39:53.159Z,8
2023-03-30T15:40:59.957Z,9
2023-03-30T15:42:06.744Z,9
2023-03-30T15:43:13.549Z,8
2023-03-30T15:44:22.939Z,8
2023-03-30T15:45:29.706Z,9
2023-03-30T15:46:36.624Z,7
2023-03-30T15:47:43.492Z,7
2023-03-30T15:48:50.214Z,9
2023-03-30T15:49:57.037Z,7
2023-03-30T15:51:04.027Z,8
2023-03-30T15:52:15.682Z,8
2023-03-30T15:53:25.127Z,7
2023-03-30T15:54:37.015Z,8
2023-03-30T15:55:46.883Z,8
2023-03-30T15:56:53.826Z,7
2023-03-30T15:58:05.619Z,8
2023-03-30T15:59:12.380Z,8
2023-03-30T16:00:20.544Z,8
2023-03-30T16:01:26.027Z,9
2023-03-30T16:02:37.912Z,8
2023-03-30T16:03:44.686Z,9
2023-03-30T16:04:54.358Z,9
2023-03-30T16:06:01.078Z,10
2023-03-30T16:07:07.976Z,10
2023-03-30T16:08:19.805Z,11
2023-03-30T16:09:26.655Z,10
2023-03-30T16:10:33.432Z,12
2023-03-30T16:11:40.276Z,10
2023-03-30T16:12:47.148Z,12
2023-03-30T16:13:53.908Z,12
2023-03-30T16:15:00.704Z,12
2023-03-30T16:16:07.701Z,12
2023-03-30T16:17:14.448Z,12
2023-03-30T16:18:21.289Z,12
2023-03-30T16:19:29.168Z,13
2023-03-30T16:20:35.984Z,13
2023-03-30T16:21:44.751Z,12
2023-03-30T16:22:49.531Z,12
2023-03-30T16:23:56.399Z,12
2023-03-30T16:25:03.240Z,13
2023-03-30T16:26:10.297Z,12
2023-03-30T16:27:17.145Z,14
2023-03-30T16:28:23.969Z,13
2023-03-30T16:29:30.957Z,14
2023-03-30T16:30:37.749Z,13
2023-03-30T16:31:44.608Z,13
2023-03-30T16:32:51.389Z,13
2023-03-30T16:33:58.171Z,13
2023-03-30T16:35:05.111Z,13
2023-03-30T16:36:12.028Z,12
2023-03-30T16:37:18.832Z,12
2023-03-30T16:38:25.584Z,12
2023-03-30T16:39:32.370Z,12
2023-03-30T16:40:40.944Z,11
2023-03-30T16:41:49.033Z,10
2023-03-30T16:42:55.833Z,10
2023-03-30T16:44:02.528Z,13
2023-03-30T16:45:09.314Z,13
2023-03-30T16:46:16.282Z,13
2023-03-30T16:47:22.973Z,12
2023-03-30T16:48:29.857Z,13
2023-03-30T16:49:36.656Z,12
2023-03-30T16:50:43.474Z,11
2023-03-30T16:51:58.054Z,11
2023-03-30T16:53:02.168Z,13
2023-03-30T16:54:16.508Z,12
2023-03-30T16:55:15.745Z,13
2023-03-30T16:56:22.689Z,12
2023-03-30T16:57:29.414Z,13
2023-03-30T16:58:36.145Z,14